createdAt,value
2018-10-21T00:01:35.013Z,36.70
2018-10-21T00:04:02.056Z,35.17
2018-10-21T00:06:29.107Z,34.10
2018-10-21T00:08:56.160Z,36.17
2018-10-21T00:11:23.200Z,37.70
2018-10-21T00:13:50.769Z,36.13
2018-10-21T00:16:17.808Z,31.40
2018-10-21T00:18:44.858Z,34.07
2018-10-21T00:21:11.951Z,30.80
2018-10-21T00:23:38.954Z,30.47
2018-10-21T00:26:05.991Z,33.00
2018-10-21T00:28:33.058Z,36.00
2018-10-21T00:31:00.101Z,32.30
2018-10-21T00:33:27.150Z,33.83
2018-10-21T00:35:54.203Z,35.27
2018-10-21T00:38:21.246Z,39.03
2018-10-21T00:40:48.296Z,35.60
2018-10-21T00:43:15.549Z,34.60
2018-10-21T00:45:42.596Z,36.10
2018-10-21T00:48:09.652Z,35.90
2018-10-21T00:50:36.694Z,36.50
2018-10-21T00:53:04.050Z,37.37
2018-10-21T00:55:31.048Z,38.33
2018-10-21T00:57:58.523Z,31.10
2018-10-21T01:00:25.712Z,35.87
2018-10-21T01:02:52.863Z,32.50
2018-10-21T01:05:19.907Z,32.93
2018-10-21T01:07:46.956Z,32.00
2018-10-21T01:10:14.930Z,32.67
2018-10-21T01:12:41.870Z,27.67
2018-10-21T01:15:10.953Z,31.60
2018-10-21T01:17:37.919Z,29.37
2018-10-21T01:20:04.962Z,30.37
2018-10-21T01:22:31.975Z,26.33
2018-10-21T01:24:58.958Z,27.47
2018-10-21T01:27:26.007Z,29.50
2018-10-21T01:29:53.061Z,28.03
2018-10-21T01:32:20.103Z,24.33
2018-10-21T01:34:48.688Z,27.27
2018-10-21T01:37:15.780Z,28.90
2018-10-21T01:39:44.365Z,27.20
2018-10-21T01:42:11.369Z,27.43
2018-10-21T01:44:38.423Z,23.90
2018-10-21T01:47:06.389Z,25.13
2018-10-21T01:49:33.438Z,27.77
2018-10-21T01:52:00.489Z,29.47
2018-10-21T01:54:27.693Z,30.27
2018-10-21T01:56:54.831Z,23.30
2018-10-21T01:59:21.785Z,25.73
2018-10-21T02:01:51.650Z,34.27
2018-10-21T02:04:18.703Z,24.50
2018-10-21T02:06:50.049Z,27.00
2018-10-21T02:09:17.158Z,26.77
2018-10-21T02:11:44.042Z,28.50
2018-10-21T02:14:11.767Z,24.00
2018-10-21T02:16:38.758Z,30.70
2018-10-21T02:19:05.802Z,22.30
2018-10-21T02:21:32.850Z,24.73
2018-10-21T02:23:59.904Z,23.97
2018-10-21T02:26:27.028Z,26.23
2018-10-21T02:28:54.917Z,23.70
2018-10-21T02:31:21.814Z,26.67
2018-10-21T02:33:49.749Z,25.00
2018-10-21T02:36:16.784Z,34.03
2018-10-21T02:38:44.140Z,22.33
2018-10-21T02:41:27.876Z,27.10
2018-10-21T02:43:54.933Z,22.87
2018-10-21T02:46:21.923Z,24.93
2018-10-21T02:48:49.023Z,28.43
2018-10-21T02:51:16.309Z,29.57
2018-10-21T02:53:43.332Z,25.03
2018-10-21T02:56:10.380Z,25.60
2018-10-21T02:58:37.424Z,24.10
2018-10-21T03:01:04.476Z,26.53
2018-10-21T03:03:31.524Z,28.80
2018-10-21T03:05:58.875Z,29.57
2018-10-21T03:08:25.923Z,27.37
2018-10-21T03:10:52.981Z,30.67
2018-10-21T03:13:20.020Z,23.67
2018-10-21T03:15:47.068Z,27.80
2018-10-21T03:18:15.891Z,22.97
2018-10-21T03:20:43.213Z,22.40
2018-10-21T03:23:10.206Z,28.27
2018-10-21T03:25:37.208Z,27.30
2018-10-21T03:28:04.666Z,22.87
2018-10-21T03:30:31.727Z,25.70
2018-10-21T03:32:58.847Z,23.70
2018-10-21T03:35:26.224Z,21.23
2018-10-21T03:37:53.270Z,20.47
2018-10-21T03:40:20.324Z,21.47
2018-10-21T03:42:47.572Z,23.90
2018-10-21T03:45:14.569Z,23.83
2018-10-21T03:47:41.669Z,23.80
2018-10-21T03:50:09.028Z,22.30
2018-10-21T03:52:36.079Z,22.20
2018-10-21T03:55:03.122Z,28.03
2018-10-21T03:57:30.581Z,26.30
2018-10-21T03:59:57.629Z,23.83
2018-10-21T04:02:24.619Z,29.27
2018-10-21T04:04:51.832Z,25.20
2018-10-21T04:07:18.879Z,20.67
2018-10-21T04:09:45.873Z,26.73
2018-10-21T04:12:12.821Z,24.70
2018-10-21T04:14:39.822Z,27.80
2018-10-21T04:17:06.866Z,24.00
2018-10-21T04:19:33.901Z,21.97
2018-10-21T04:22:00.972Z,23.10
2018-10-21T04:24:28.012Z,24.03
2018-10-21T04:26:55.060Z,20.40
2018-10-21T04:29:22.051Z,26.07
2018-10-21T04:31:49.055Z,20.77
2018-10-21T04:34:16.186Z,21.40
2018-10-21T04:36:43.153Z,22.83
2018-10-21T04:39:25.868Z,21.37
2018-10-21T04:41:52.923Z,20.83
2018-10-21T04:44:19.965Z,23.77
2018-10-21T04:46:47.095Z,22.77
2018-10-21T04:49:14.067Z,23.30
2018-10-21T04:51:41.623Z,21.27
2018-10-21T04:54:08.677Z,21.30
2018-10-21T04:56:35.721Z,21.40
2018-10-21T05:01:35.905Z,20.10
2018-10-21T05:04:02.954Z,25.03
2018-10-21T05:06:29.960Z,21.37
2018-10-21T05:08:57.005Z,20.90
2018-10-21T05:11:24.104Z,19.17
2018-10-21T05:13:51.106Z,22.70
2018-10-21T05:16:19.014Z,21.30
2018-10-21T05:18:47.349Z,21.30
2018-10-21T05:21:14.402Z,22.50
2018-10-21T05:23:41.650Z,22.77
2018-10-21T05:26:09.518Z,22.20
2018-10-21T05:28:36.566Z,20.17
2018-10-21T05:31:03.621Z,21.37
2018-10-21T05:33:31.079Z,21.90
2018-10-21T05:35:58.123Z,20.90
2018-10-21T05:38:25.171Z,31.43
2018-10-21T05:40:53.122Z,24.23
2018-10-21T05:43:20.191Z,24.80
2018-10-21T05:45:47.242Z,21.20
2018-10-21T05:48:14.293Z,24.43
2018-10-21T05:50:41.337Z,23.23
2018-10-21T05:53:08.389Z,27.20
2018-10-21T05:55:36.097Z,24.53
2018-10-21T05:58:03.243Z,27.27
2018-10-21T06:00:30.302Z,21.77
2018-10-21T06:02:57.392Z,32.20
2018-10-21T06:05:24.394Z,21.90
2018-10-21T06:07:51.446Z,20.33
2018-10-21T06:10:20.180Z,21.37
2018-10-21T06:12:47.177Z,29.43
2018-10-21T06:15:14.221Z,24.47
2018-10-21T06:17:41.275Z,23.30
2018-10-21T06:20:08.427Z,27.47
2018-10-21T06:22:35.473Z,20.90
2018-10-21T06:25:04.054Z,24.73
2018-10-21T06:27:31.007Z,21.23
2018-10-21T06:29:58.049Z,19.33
2018-10-21T06:32:25.103Z,20.57
2018-10-21T06:34:52.146Z,20.23
2018-10-21T06:37:19.604Z,20.50
2018-10-21T06:39:46.653Z,20.67
2018-10-21T06:42:13.707Z,26.33
2018-10-21T06:44:40.751Z,22.47
2018-10-21T06:47:07.901Z,24.77
2018-10-21T06:49:34.951Z,23.57
2018-10-21T06:52:02.511Z,23.70
2018-10-21T06:54:29.558Z,20.40
2018-10-21T06:56:56.889Z,23.63
2018-10-21T06:59:23.862Z,22.57
2018-10-21T07:01:50.919Z,22.93
2018-10-21T07:04:18.074Z,23.03
2018-10-21T07:06:47.059Z,21.37
2018-10-21T07:09:14.108Z,24.70
2018-10-21T07:11:41.151Z,23.97
2018-10-21T07:14:09.223Z,21.60
2018-10-21T07:16:36.603Z,27.73
2018-10-21T07:19:03.627Z,30.67
2018-10-21T07:21:30.677Z,36.27
2018-10-21T07:23:57.730Z,25.83
2018-10-21T07:26:24.774Z,28.93
2018-10-21T07:28:51.925Z,28.37
2018-10-21T07:31:19.076Z,29.63
2018-10-21T07:33:47.049Z,26.40
2018-10-21T07:36:14.154Z,25.13
2018-10-21T07:38:41.145Z,25.40
2018-10-21T07:41:08.193Z,27.40
2018-10-21T07:43:36.571Z,28.13
2018-10-21T07:46:03.669Z,30.07
2018-10-21T07:48:30.777Z,26.53
2018-10-21T07:50:57.927Z,29.33
2018-10-21T07:53:24.971Z,30.93
2018-10-21T07:55:52.326Z,33.10
2018-10-21T07:58:19.430Z,32.27
2018-10-21T08:00:46.465Z,30.47
2018-10-21T08:03:13.882Z,30.53
2018-10-21T08:06:02.744Z,33.50
2018-10-21T08:08:29.802Z,32.87
2018-10-21T08:10:56.838Z,32.00
2018-10-21T08:13:23.857Z,33.00
2018-10-21T08:15:51.141Z,43.27
2018-10-21T08:18:18.399Z,37.00
2018-10-21T08:20:45.443Z,41.60
2018-10-21T08:23:12.493Z,40.37
2018-10-21T08:25:39.544Z,42.43
2018-10-21T08:28:06.604Z,39.33
2018-10-21T08:30:33.636Z,39.67
2018-10-21T08:33:00.890Z,46.30
2018-10-21T08:35:28.353Z,43.07
2018-10-21T08:37:55.704Z,35.00
2018-10-21T08:40:22.758Z,30.63
2018-10-21T08:42:49.909Z,36.57
2018-10-21T08:45:17.059Z,36.93
2018-10-21T08:47:44.671Z,25.03
2018-10-21T08:50:11.612Z,29.40
2018-10-21T08:52:38.718Z,26.23
2018-10-21T08:55:06.183Z,27.20
2018-10-21T08:57:33.223Z,27.53
2018-10-21T09:00:00.274Z,32.30
2018-10-21T09:02:29.978Z,21.80
2018-10-21T09:04:57.075Z,28.20
2018-10-21T09:07:24.587Z,28.20
2018-10-21T09:09:53.441Z,27.77
2018-10-21T09:12:24.112Z,30.30
2018-10-21T09:14:53.699Z,23.13
2018-10-21T09:17:20.667Z,35.27
2018-10-21T09:19:53.501Z,21.87
2018-10-21T09:22:44.478Z,19.80
2018-10-21T09:25:11.696Z,29.50
2018-10-21T09:27:38.810Z,22.80
2018-10-21T09:30:05.811Z,17.93
2018-10-21T09:32:32.865Z,29.70
2018-10-21T09:35:00.938Z,21.63
2018-10-21T09:37:28.187Z,23.03
2018-10-21T09:39:55.383Z,24.57
2018-10-21T09:42:22.591Z,23.57
2018-10-21T09:44:49.640Z,24.50
2018-10-21T09:47:18.633Z,22.37
2018-10-21T09:49:46.034Z,20.37
2018-10-21T09:52:13.710Z,30.67
2018-10-21T09:54:40.701Z,17.75
2018-10-21T09:57:07.755Z,19.90
2018-10-21T09:59:34.797Z,21.40
2018-10-21T10:02:18.538Z,16.17
2018-10-21T10:04:46.105Z,20.90
2018-10-21T10:07:13.635Z,22.92
2018-10-21T10:09:40.713Z,20.15
2018-10-21T10:12:07.755Z,22.70
2018-10-21T10:14:34.806Z,16.55
2018-10-21T10:17:01.955Z,28.67
2018-10-21T10:19:30.642Z,22.70
2018-10-21T10:21:58.205Z,22.00
2018-10-21T10:24:25.255Z,22.13
2018-10-21T10:26:52.306Z,29.65
2018-10-21T10:29:20.992Z,26.90
2018-10-21T10:31:48.239Z,20.62
2018-10-21T10:34:15.700Z,24.85
2018-10-21T10:36:42.645Z,15.52
2018-10-21T10:39:09.693Z,19.70
2018-10-21T10:41:36.755Z,17.33
2018-10-21T10:44:03.790Z,18.55
2018-10-21T10:46:31.205Z,26.42
2018-10-21T10:48:58.226Z,28.45
2018-10-21T10:51:25.243Z,18.52
2018-10-21T10:53:52.600Z,25.02
2018-10-21T10:56:19.654Z,12.80
2018-10-21T10:58:46.695Z,24.17
2018-10-21T11:01:13.947Z,14.10
2018-10-21T11:03:41.107Z,19.37
2018-10-21T11:06:09.191Z,20.80
2018-10-21T11:08:36.221Z,18.92
2018-10-21T11:11:03.270Z,21.52
2018-10-21T11:13:30.527Z,18.92
2018-10-21T11:15:57.581Z,18.30
2018-10-21T11:18:24.626Z,24.45
2018-10-21T11:20:51.778Z,17.83
2018-10-21T11:23:19.029Z,13.10
2018-10-21T11:25:46.919Z,20.10
2018-10-21T11:28:14.033Z,17.95
2018-10-21T11:30:41.196Z,15.88
2018-10-21T11:33:08.346Z,15.68
2018-10-21T11:35:35.606Z,22.13
2018-10-21T11:38:02.719Z,20.60
2018-10-21T11:40:29.907Z,21.98
2018-10-21T11:42:58.078Z,16.05
2018-10-21T11:45:25.135Z,14.38
2018-10-21T11:47:52.384Z,12.75
2018-10-21T11:50:19.439Z,12.95
2018-10-21T11:52:46.520Z,16.80
2018-10-21T11:55:14.102Z,7.90
2018-10-21T11:57:41.650Z,12.75
2018-10-21T12:00:09.882Z,7.72
2018-10-21T12:02:37.703Z,9.82
2018-10-21T12:05:06.535Z,7.78
2018-10-21T12:07:35.877Z,10.05
2018-10-21T12:10:03.550Z,7.28
2018-10-21T12:12:32.183Z,9.50
2018-10-21T12:14:59.237Z,5.40
2018-10-21T12:17:26.281Z,5.35
2018-10-21T12:19:55.256Z,5.85
2018-10-21T12:22:22.274Z,3.50
2018-10-21T12:24:49.475Z,5.00
2018-10-21T12:27:16.728Z,3.30
2018-10-21T12:29:44.029Z,2.62
2018-10-21T12:32:11.029Z,6.20
2018-10-21T12:34:38.078Z,9.77
2018-10-21T12:37:06.212Z,18.47
2018-10-21T12:39:33.142Z,15.97
2018-10-21T12:42:02.349Z,5.33
2018-10-21T12:44:34.265Z,4.63
2018-10-21T12:47:01.317Z,6.90
2018-10-21T12:49:28.357Z,5.77
2018-10-21T12:51:55.426Z,7.67
2018-10-21T12:54:22.411Z,7.53
2018-10-21T12:56:49.550Z,4.30
2018-10-21T12:59:16.556Z,4.03
2018-10-21T13:01:43.600Z,1.50
2018-10-21T13:04:11.238Z,1.23
2018-10-21T13:06:38.317Z,2.07
2018-10-21T13:09:05.361Z,2.37
2018-10-21T13:11:32.619Z,2.93
2018-10-21T13:14:00.601Z,1.50
2018-10-21T13:16:27.735Z,1.80
2018-10-21T13:18:55.895Z,1.60
2018-10-21T13:21:22.957Z,1.13
2018-10-21T13:23:50.007Z,1.37
2018-10-21T13:26:17.160Z,2.47
2018-10-21T13:28:44.448Z,1.50
2018-10-21T13:31:11.472Z,1.80
2018-10-21T13:33:38.821Z,3.80
2018-10-21T13:36:06.068Z,1.77
2018-10-21T13:38:33.123Z,4.47
2018-10-21T13:41:00.214Z,3.57
2018-10-21T13:43:27.317Z,8.47
2018-10-21T13:45:54.447Z,4.87
2018-10-21T13:48:21.618Z,3.87
2018-10-21T13:50:49.622Z,2.37
2018-10-21T13:53:16.873Z,4.80
2018-10-21T13:55:43.994Z,7.73
2018-10-21T13:58:11.913Z,3.43
2018-10-21T14:00:39.198Z,1.67
2018-10-21T14:03:06.272Z,1.90
2018-10-21T14:05:33.319Z,2.23
2018-10-21T14:08:01.084Z,2.93
2018-10-21T14:10:28.435Z,2.10
2018-10-21T14:12:55.805Z,2.07
2018-10-21T14:15:22.915Z,2.90
2018-10-21T14:17:50.103Z,3.80
2018-10-21T14:20:19.123Z,2.40
2018-10-21T14:22:46.955Z,2.20
2018-10-21T14:25:16.383Z,3.13
2018-10-21T14:27:43.571Z,2.87
2018-10-21T14:30:10.729Z,2.23
2018-10-21T14:32:38.433Z,2.37
2018-10-21T14:35:05.894Z,2.03
2018-10-21T14:37:32.878Z,2.10
2018-10-21T14:40:00.406Z,2.20
2018-10-21T14:42:27.547Z,2.97
2018-10-21T14:44:54.805Z,2.10
2018-10-21T14:47:22.615Z,3.73
2018-10-21T14:49:51.258Z,1.57
2018-10-21T14:52:18.296Z,2.20
2018-10-21T14:54:45.345Z,5.17
2018-10-21T14:57:14.341Z,4.20
2018-10-21T14:59:41.439Z,2.37
2018-10-21T15:02:08.712Z,4.63
2018-10-21T15:04:35.896Z,2.20
2018-10-21T15:07:04.340Z,2.63
2018-10-21T15:09:31.645Z,3.13
2018-10-21T15:11:59.436Z,2.83
2018-10-21T15:14:27.063Z,2.40
2018-10-21T15:16:55.775Z,5.03
2018-10-21T15:19:22.870Z,46.80
2018-10-21T15:21:49.841Z,4.17
2018-10-21T15:24:17.248Z,2.20
2018-10-21T15:26:44.247Z,2.10
2018-10-21T15:29:12.035Z,2.67
2018-10-21T15:31:39.368Z,2.93
2018-10-21T15:34:07.013Z,4.30
2018-10-21T15:36:34.080Z,3.77
2018-10-21T15:39:01.338Z,2.57
2018-10-21T15:41:30.146Z,4.90
2018-10-21T15:43:58.906Z,3.37
2018-10-21T15:46:28.459Z,3.20
2018-10-21T15:48:55.954Z,3.00
2018-10-21T15:51:23.238Z,5.67
2018-10-21T15:53:51.853Z,3.27
2018-10-21T15:56:20.095Z,2.70
2018-10-21T15:58:47.906Z,2.97
2018-10-21T16:01:16.493Z,9.07
2018-10-21T16:03:45.167Z,2.87
2018-10-21T16:06:15.558Z,4.80
2018-10-21T16:08:43.983Z,3.63
2018-10-21T16:11:16.516Z,4.37
2018-10-21T16:13:46.664Z,6.30
2018-10-21T16:16:17.689Z,6.17
2018-10-21T16:18:47.590Z,12.33
2018-10-21T16:21:17.303Z,5.77
2018-10-21T16:23:45.630Z,6.70
2018-10-21T16:26:14.632Z,5.40
2018-10-21T16:28:43.727Z,6.00
2018-10-21T16:31:11.473Z,6.20
2018-10-21T16:33:39.924Z,4.23
2018-10-21T16:36:09.019Z,4.43
2018-10-21T16:38:37.506Z,6.50
2018-10-21T16:41:06.034Z,4.97
2018-10-21T16:43:33.851Z,6.00
2018-10-21T16:46:02.929Z,4.20
2018-10-21T16:48:31.466Z,7.60
2018-10-21T16:51:00.137Z,5.27
2018-10-21T16:53:29.545Z,5.23
2018-10-21T16:56:01.340Z,3.63
2018-10-21T16:58:30.118Z,3.97
2018-10-21T17:00:57.842Z,5.63
2018-10-21T17:03:26.883Z,2.83
2018-10-21T17:05:55.591Z,4.33
2018-10-21T17:08:23.837Z,3.50
2018-10-21T17:10:53.187Z,3.93
2018-10-21T17:13:22.111Z,4.77
2018-10-21T17:15:50.405Z,4.63
2018-10-21T17:18:19.406Z,8.73
2018-10-21T17:20:50.201Z,3.60
2018-10-21T17:23:18.172Z,7.07
2018-10-21T17:25:48.896Z,4.30
2018-10-21T17:28:18.981Z,4.90
2018-10-21T17:30:46.080Z,4.03
2018-10-21T17:33:15.009Z,4.07
2018-10-21T17:35:44.162Z,5.30
2018-10-21T17:38:12.797Z,5.57
2018-10-21T17:40:40.305Z,5.43
2018-10-21T17:43:10.988Z,4.23
2018-10-21T17:45:39.429Z,4.60
2018-10-21T17:48:07.845Z,3.10
2018-10-21T17:50:35.363Z,6.57
2018-10-21T17:53:03.795Z,3.70
2018-10-21T17:55:32.123Z,4.73
2018-10-21T17:57:59.953Z,4.17
2018-10-21T18:00:30.132Z,4.90
2018-10-21T18:02:58.652Z,4.93
2018-10-21T18:05:29.477Z,3.93
2018-10-21T18:07:57.919Z,4.57
2018-10-21T18:10:26.342Z,4.33
2018-10-21T18:12:58.173Z,4.80
2018-10-21T18:15:25.612Z,5.00
2018-10-21T18:17:56.710Z,6.97
2018-10-21T18:20:24.661Z,6.57
2018-10-21T18:22:52.082Z,3.97
2018-10-21T18:25:21.212Z,4.83
2018-10-21T18:27:48.535Z,4.43
2018-10-21T18:30:15.997Z,6.43
2018-10-21T18:32:47.598Z,3.63
2018-10-21T18:35:15.210Z,5.57
2018-10-21T18:37:43.393Z,6.07
2018-10-21T18:40:12.984Z,5.27
2018-10-21T18:42:40.732Z,4.80
2018-10-21T18:45:13.444Z,6.27
2018-10-21T18:47:42.275Z,6.23
2018-10-21T18:50:11.647Z,4.00
2018-10-21T18:52:39.873Z,4.77
2018-10-21T18:55:08.037Z,9.37
2018-10-21T18:57:37.118Z,6.83
2018-10-21T19:00:05.487Z,5.67
2018-10-21T19:02:32.916Z,6.93
2018-10-21T19:05:02.654Z,7.40
2018-10-21T19:07:32.804Z,5.30
2018-10-21T19:10:00.463Z,6.50
2018-10-21T19:12:31.505Z,4.10
2018-10-21T19:15:00.039Z,4.87
2018-10-21T19:17:32.562Z,4.43
2018-10-21T19:20:01.102Z,4.03
2018-10-21T19:22:30.654Z,4.00
2018-10-21T19:24:59.841Z,5.83
2018-10-21T19:27:29.419Z,4.83
2018-10-21T19:29:56.976Z,5.43
2018-10-21T19:32:27.759Z,7.80
2018-10-21T19:34:56.804Z,7.00
2018-10-21T19:37:25.492Z,8.97
2018-10-21T19:40:01.216Z,9.20
2018-10-21T19:42:29.955Z,7.97
2018-10-21T19:44:57.492Z,7.73
2018-10-21T19:47:25.698Z,7.73
2018-10-21T19:49:57.194Z,9.50
2018-10-21T19:52:26.624Z,10.53
2018-10-21T19:54:56.443Z,16.63
2018-10-21T19:57:33.677Z,26.80
2018-10-21T20:00:02.672Z,7.80
2018-10-21T20:02:32.847Z,7.00
2018-10-21T20:04:59.896Z,12.90
2018-10-21T20:07:28.510Z,7.50
2018-10-21T20:09:57.252Z,7.63
2018-10-21T20:12:25.643Z,9.63
2018-10-21T20:14:53.210Z,7.70
2018-10-21T20:17:25.074Z,7.50
2018-10-21T20:19:52.216Z,6.30
2018-10-21T20:22:21.258Z,7.57
2018-10-21T20:24:49.641Z,8.20
2018-10-21T20:27:18.281Z,13.40
2018-10-21T20:29:47.686Z,9.30
2018-10-21T20:32:17.818Z,8.27
2018-10-21T20:34:45.473Z,11.27
2018-10-21T20:37:12.974Z,5.80
2018-10-21T20:39:41.438Z,5.90
2018-10-21T20:44:44.645Z,15.03
2018-10-21T20:47:14.482Z,10.40
2018-10-21T20:49:44.617Z,6.30
2018-10-21T20:52:16.860Z,7.87
2018-10-21T20:54:48.506Z,8.33
2018-10-21T20:57:17.601Z,4.83
2018-10-21T20:59:47.377Z,9.40
2018-10-21T21:02:14.788Z,6.83
2018-10-21T21:04:42.101Z,5.77
2018-10-21T21:07:09.459Z,6.93
2018-10-21T21:09:36.503Z,8.17
2018-10-21T21:12:03.797Z,7.03
2018-10-21T21:14:30.805Z,7.40
2018-10-21T21:16:57.854Z,8.93
2018-10-21T21:19:25.315Z,5.43
2018-10-21T21:21:54.632Z,5.53
2018-10-21T21:24:21.670Z,6.40
2018-10-21T21:26:49.224Z,4.83
2018-10-21T21:29:16.276Z,6.97
2018-10-21T21:31:43.319Z,4.63
2018-10-21T21:34:10.849Z,6.07
2018-10-21T21:36:39.505Z,10.33
2018-10-21T21:39:07.954Z,4.43
2018-10-21T21:41:35.303Z,5.43
2018-10-21T21:44:02.398Z,6.47
2018-10-21T21:46:29.450Z,6.07
2018-10-21T21:48:56.449Z,4.73
2018-10-21T21:51:23.497Z,6.60
2018-10-21T21:53:50.536Z,5.87
2018-10-21T21:56:17.580Z,6.63
2018-10-21T21:58:44.630Z,5.30
2018-10-21T22:01:11.686Z,5.80
2018-10-21T22:03:38.627Z,7.03
2018-10-21T22:06:05.705Z,5.43
2018-10-21T22:08:32.727Z,8.53
2018-10-21T22:10:59.879Z,7.17
2018-10-21T22:13:26.928Z,6.57
2018-10-21T22:15:53.937Z,5.33
2018-10-21T22:18:20.925Z,5.40
2018-10-21T22:20:47.873Z,5.60
2018-10-21T22:23:14.924Z,5.47
2018-10-21T22:25:41.977Z,5.27
2018-10-21T22:28:09.037Z,5.97
2018-10-21T22:30:36.073Z,6.50
2018-10-21T22:33:03.066Z,8.30
2018-10-21T22:35:30.069Z,10.33
2018-10-21T22:37:57.128Z,5.70
2018-10-21T22:40:24.481Z,6.43
2018-10-21T22:42:51.528Z,4.77
2018-10-21T22:45:18.583Z,7.83
2018-10-21T22:47:45.933Z,6.10
2018-10-21T22:50:12.982Z,7.47
2018-10-21T22:52:40.038Z,4.80
2018-10-21T22:55:07.496Z,10.40
2018-10-21T22:57:34.540Z,7.10
2018-10-21T23:00:01.603Z,5.17
2018-10-21T23:02:28.645Z,5.93
2018-10-21T23:04:55.687Z,5.10
2018-10-21T23:07:22.839Z,8.17
2018-10-21T23:09:50.187Z,7.43
2018-10-21T23:12:17.307Z,6.17
2018-10-21T23:14:44.281Z,5.23
2018-10-21T23:17:11.328Z,5.07
2018-10-21T23:19:38.277Z,9.27
2018-10-21T23:22:05.472Z,9.17
2018-10-21T23:24:32.477Z,6.63
2018-10-21T23:26:59.527Z,7.87
2018-10-21T23:29:26.678Z,6.67
2018-10-21T23:31:53.830Z,5.80
2018-10-21T23:34:20.823Z,6.37
2018-10-21T23:36:49.148Z,6.73
2018-10-21T23:39:16.205Z,6.40
2018-10-21T23:41:43.246Z,8.13
2018-10-21T23:44:10.202Z,6.23
2018-10-21T23:46:37.239Z,6.10
2018-10-21T23:49:04.391Z,4.97
2018-10-21T23:51:31.439Z,6.93
2018-10-21T23:54:00.666Z,6.80
2018-10-21T23:56:27.687Z,5.90
2018-10-21T23:58:54.735Z,5.87
